Tilos, Greece
Current Conditions -  °F | °C
As of 1:50 PM on Saturday 25 Oct 2014 (Local Time) from LGKO Reporting Station
Scattered Clouds Scattered Clouds  
Wind Chill: 73°   Ceiling: Unl
Heat Index: 73°   Visibility: 6mi
Dew Point: 50°   Wind: 12mph
Humidity: 44%   Direction: 230°SW
Pressure: 29.88"   Gusts: NA
Location:  36.42°N, 27.37°E
Report Text: LGKO 251150Z 23010KT 9999 SCT020 23/10 Q1012
Loading
Personal Weather Stations






























Interactive Weather Map
Tropical Storm Tracking
New forecast layout! Learn more

10-Day Weather Forecast

Advertisements
Track Severe Weather on mobile